createdAt,value
2019-05-20T00:01:10.540Z,31.37
2019-05-20T00:03:41.236Z,31.10
2019-05-20T00:06:11.700Z,31.67
2019-05-20T00:08:41.953Z,31.17
2019-05-20T00:11:16.353Z,29.30
2019-05-20T00:13:47.797Z,31.57
2019-05-20T00:16:18.271Z,29.87
2019-05-20T00:18:49.268Z,30.03
2019-05-20T00:21:19.535Z,30.50
2019-05-20T00:23:50.008Z,29.53
2019-05-20T00:26:20.595Z,30.33
2019-05-20T00:28:50.746Z,30.07
2019-05-20T00:31:21.055Z,30.20
2019-05-20T00:33:51.890Z,31.10
2019-05-20T00:36:23.103Z,30.13
2019-05-20T00:39:11.622Z,30.90
2019-05-20T00:41:42.410Z,29.43
2019-05-20T00:44:13.506Z,29.67
2019-05-20T00:46:44.965Z,28.03
2019-05-20T00:49:16.000Z,28.13
2019-05-20T00:51:46.688Z,27.43
2019-05-20T00:54:17.780Z,26.70
2019-05-20T00:56:51.066Z,26.47
2019-05-20T00:59:21.366Z,26.40
2019-05-20T01:01:51.558Z,27.60
2019-05-20T01:04:22.474Z,25.07
2019-05-20T01:06:53.280Z,25.87
2019-05-20T01:09:23.371Z,28.70
2019-05-20T01:11:53.840Z,26.93
2019-05-20T01:14:24.022Z,26.43
2019-05-20T01:16:54.285Z,27.97
2019-05-20T01:19:39.358Z,26.80
2019-05-20T01:22:09.675Z,28.30
2019-05-20T01:24:39.931Z,30.93
2019-05-20T01:27:10.625Z,27.40
2019-05-20T01:29:41.114Z,28.20
2019-05-20T01:32:18.977Z,26.27
2019-05-20T01:34:52.094Z,27.53
2019-05-20T01:37:23.149Z,27.40
2019-05-20T01:39:56.268Z,26.53
2019-05-20T01:42:27.671Z,28.67
2019-05-20T01:44:57.985Z,27.70
2019-05-20T01:47:28.398Z,26.67
2019-05-20T01:50:01.524Z,27.40
2019-05-20T01:52:35.378Z,26.70
2019-05-20T01:55:06.353Z,25.67
2019-05-20T01:57:39.151Z,26.17
2019-05-20T02:00:14.479Z,26.17
2019-05-20T02:02:44.915Z,25.47
2019-05-20T02:05:16.537Z,26.43
2019-05-20T02:07:51.135Z,26.33
2019-05-20T02:10:26.600Z,27.63
2019-05-20T02:12:56.796Z,26.57
2019-05-20T02:15:35.821Z,29.67
2019-05-20T02:18:06.625Z,37.80
2019-05-20T02:20:37.047Z,37.93
2019-05-20T02:23:17.748Z,35.03
2019-05-20T02:25:51.268Z,34.43
2019-05-20T02:28:21.494Z,35.60
2019-05-20T02:30:57.003Z,35.33
2019-05-20T02:33:27.396Z,35.87
2019-05-20T02:35:57.630Z,36.97
2019-05-20T02:38:28.552Z,34.53
2019-05-20T02:41:01.906Z,41.80
2019-05-20T02:43:32.754Z,38.70
2019-05-20T02:46:03.165Z,36.33
2019-05-20T02:48:33.416Z,41.63
2019-05-20T02:51:03.692Z,38.53
2019-05-20T02:53:34.770Z,40.17
2019-05-20T02:56:05.185Z,38.90
2019-05-20T02:58:36.074Z,36.23
2019-05-20T03:01:09.314Z,38.93
2019-05-20T03:03:40.321Z,33.93
2019-05-20T03:06:10.867Z,33.27
2019-05-20T03:08:41.335Z,30.70
2019-05-20T03:11:14.622Z,36.93
2019-05-20T03:13:44.910Z,33.50
2019-05-20T03:16:15.826Z,34.30
2019-05-20T03:18:46.688Z,38.37
2019-05-20T03:21:16.965Z,38.20
2019-05-20T03:23:50.487Z,41.07
2019-05-20T03:26:20.708Z,41.80
2019-05-20T03:28:51.324Z,37.97
2019-05-20T03:31:22.100Z,40.73
2019-05-20T03:33:52.424Z,39.80
2019-05-20T03:36:22.700Z,38.23
2019-05-20T03:38:53.049Z,40.30
2019-05-20T03:41:23.316Z,36.90
2019-05-20T03:43:53.418Z,31.93
2019-05-20T03:46:25.872Z,36.40
2019-05-20T03:48:59.595Z,39.97
2019-05-20T03:51:29.842Z,37.73
2019-05-20T03:54:00.659Z,35.07
2019-05-20T03:56:33.885Z,43.67
2019-05-20T03:59:04.566Z,40.37
2019-05-20T04:01:37.375Z,41.07
2019-05-20T04:04:07.908Z,35.27
2019-05-20T04:06:38.027Z,40.03
2019-05-20T04:09:08.818Z,40.97
2019-05-20T04:11:39.119Z,39.37
2019-05-20T04:14:09.858Z,38.33
2019-05-20T04:16:40.675Z,42.30
2019-05-20T04:19:10.966Z,45.33
2019-05-20T04:21:41.260Z,36.37
2019-05-20T04:24:12.725Z,43.63
2019-05-20T04:26:45.484Z,46.37
2019-05-20T04:29:18.664Z,46.60
2019-05-20T04:31:49.723Z,50.93
2019-05-20T04:34:19.844Z,43.43
2019-05-20T04:36:50.922Z,45.07
2019-05-20T04:39:21.114Z,40.73
2019-05-20T04:41:52.539Z,39.87
2019-05-20T04:44:22.971Z,44.13
2019-05-20T04:46:57.878Z,46.97
2019-05-20T04:49:28.480Z,44.03
2019-05-20T04:52:01.870Z,36.57
2019-05-20T04:54:33.011Z,42.77
2019-05-20T04:57:03.260Z,46.60
2019-05-20T04:59:33.620Z,44.57
2019-05-20T05:02:03.872Z,45.17
2019-05-20T05:04:36.941Z,45.10
2019-05-20T05:07:07.051Z,45.03
2019-05-20T05:09:37.614Z,39.53
2019-05-20T05:12:08.542Z,40.17
2019-05-20T05:14:39.025Z,40.83
2019-05-20T05:17:09.314Z,36.73
2019-05-20T05:19:39.845Z,37.00
2019-05-20T05:22:10.929Z,35.03
2019-05-20T05:24:40.974Z,33.97
2019-05-20T05:27:15.685Z,30.63
2019-05-20T05:29:46.026Z,35.63
2019-05-20T05:32:19.264Z,34.93
2019-05-20T05:34:49.489Z,34.70
2019-05-20T05:37:19.971Z,33.03
2019-05-20T05:39:50.532Z,34.23
2019-05-20T05:42:21.470Z,32.97
2019-05-20T05:44:57.952Z,32.37
2019-05-20T05:47:29.750Z,33.50
2019-05-20T05:50:19.060Z,29.20
2019-05-20T05:52:49.421Z,32.17
2019-05-20T05:55:22.951Z,30.70
2019-05-20T05:57:56.673Z,31.87
2019-05-20T06:00:27.234Z,32.87
2019-05-20T06:03:01.938Z,30.00
2019-05-20T06:05:32.981Z,30.13
2019-05-20T06:08:03.489Z,30.20
2019-05-20T06:10:35.921Z,31.10
2019-05-20T06:13:06.426Z,30.70
2019-05-20T06:15:36.669Z,31.83
2019-05-20T06:18:12.080Z,32.93
2019-05-20T06:20:42.390Z,31.30
2019-05-20T06:23:13.266Z,30.17
2019-05-20T06:25:43.460Z,30.03
2019-05-20T06:28:14.389Z,30.73
2019-05-20T06:30:45.727Z,28.87
2019-05-20T06:33:16.046Z,31.57
2019-05-20T06:35:50.347Z,37.83
2019-05-20T06:38:43.217Z,30.23
2019-05-20T06:41:13.930Z,27.77
2019-05-20T06:43:49.303Z,27.10
2019-05-20T06:46:23.591Z,26.57
2019-05-20T06:48:54.145Z,25.60
2019-05-20T06:51:25.456Z,26.20
2019-05-20T06:53:55.739Z,24.87
2019-05-20T06:56:25.915Z,25.47
2019-05-20T06:58:59.421Z,24.70
2019-05-20T07:01:30.081Z,23.87
2019-05-20T07:04:00.821Z,23.80
2019-05-20T07:06:45.641Z,24.47
2019-05-20T07:09:05.261Z,22.97
2019-05-20T07:11:35.730Z,24.13
2019-05-20T07:14:06.351Z,24.47
2019-05-20T07:16:41.046Z,25.30
2019-05-20T07:19:14.450Z,24.03
2019-05-20T07:21:50.948Z,23.80
2019-05-20T07:24:26.845Z,25.23
2019-05-20T07:26:57.965Z,23.80
2019-05-20T07:29:28.466Z,24.50
2019-05-20T07:31:59.420Z,24.47
2019-05-20T07:34:31.115Z,23.50
2019-05-20T07:37:04.849Z,24.00
2019-05-20T07:39:37.193Z,23.50
2019-05-20T07:42:09.902Z,22.77
2019-05-20T07:44:45.231Z,22.13
2019-05-20T07:47:15.519Z,23.87
2019-05-20T07:49:50.255Z,23.80
2019-05-20T07:52:23.731Z,24.60
2019-05-20T07:54:57.901Z,24.50
2019-05-20T07:57:30.886Z,24.47
2019-05-20T08:00:01.752Z,24.80
2019-05-20T08:02:35.573Z,26.13
2019-05-20T08:05:17.337Z,25.27
2019-05-20T08:07:52.460Z,23.67
2019-05-20T08:10:23.940Z,23.67
2019-05-20T08:12:54.848Z,22.83
2019-05-20T08:15:27.467Z,22.00
2019-05-20T08:17:58.171Z,22.90
2019-05-20T08:20:28.509Z,21.73
2019-05-20T08:22:59.223Z,21.40
2019-05-20T08:25:30.221Z,21.33
2019-05-20T08:28:05.396Z,22.03
2019-05-20T08:30:37.005Z,21.57
2019-05-20T08:33:07.914Z,20.87
2019-05-20T08:35:38.811Z,21.20
2019-05-20T08:38:09.626Z,21.73
2019-05-20T08:40:40.065Z,21.13
2019-05-20T08:43:10.485Z,20.13
2019-05-20T08:45:44.687Z,21.97
2019-05-20T08:48:14.847Z,21.27
2019-05-20T08:50:45.440Z,20.90
2019-05-20T08:53:15.822Z,21.77
2019-05-20T08:55:46.582Z,22.07
2019-05-20T08:58:17.607Z,21.47
2019-05-20T09:00:48.007Z,21.27
2019-05-20T09:03:18.418Z,21.00
2019-05-20T09:05:48.970Z,21.07
2019-05-20T09:08:19.481Z,20.07
2019-05-20T09:10:53.504Z,19.77
2019-05-20T09:13:27.809Z,19.80
2019-05-20T09:16:02.586Z,19.63
2019-05-20T09:18:33.246Z,20.97
2019-05-20T09:21:03.392Z,20.10
2019-05-20T09:23:40.683Z,19.13
2019-05-20T09:26:11.317Z,18.53
2019-05-20T09:28:42.852Z,19.53
2019-05-20T09:31:13.487Z,19.90
2019-05-20T09:33:44.644Z,19.57
2019-05-20T09:36:18.235Z,18.80
2019-05-20T09:38:52.283Z,18.00
2019-05-20T09:41:24.476Z,18.77
2019-05-20T09:44:02.425Z,17.17
2019-05-20T09:46:35.793Z,17.47
2019-05-20T09:49:06.782Z,19.50
2019-05-20T09:51:51.622Z,18.63
2019-05-20T09:54:13.480Z,18.70
2019-05-20T09:56:46.166Z,19.03
2019-05-20T09:59:20.299Z,18.60
2019-05-20T10:01:51.531Z,18.00
2019-05-20T10:04:22.589Z,18.30
2019-05-20T10:07:01.205Z,18.83
2019-05-20T10:09:34.916Z,18.47
2019-05-20T10:12:45.301Z,18.63
2019-05-20T10:15:06.466Z,18.47
2019-05-20T10:17:45.653Z,19.53
2019-05-20T10:20:21.746Z,19.93
2019-05-20T10:22:57.578Z,18.13
2019-05-20T10:25:28.315Z,17.07
2019-05-20T10:28:06.640Z,18.83
2019-05-20T10:30:40.466Z,18.13
2019-05-20T10:33:11.988Z,18.20
2019-05-20T10:35:43.047Z,18.97
2019-05-20T10:38:16.700Z,18.23
2019-05-20T10:40:55.529Z,18.73
2019-05-20T10:43:30.883Z,18.43
2019-05-20T10:46:10.523Z,18.07
2019-05-20T10:48:44.718Z,18.63
2019-05-20T10:51:19.240Z,19.17
2019-05-20T10:53:55.051Z,18.03
2019-05-20T10:56:26.441Z,20.27
2019-05-20T10:58:56.902Z,18.87
2019-05-20T11:01:32.939Z,18.80
2019-05-20T11:04:04.608Z,18.37
2019-05-20T11:06:36.536Z,17.90
2019-05-20T11:09:14.351Z,17.13
2019-05-20T11:11:46.910Z,18.13
2019-05-20T11:14:19.687Z,18.47
2019-05-20T11:16:54.718Z,19.10
2019-05-20T11:19:39.101Z,18.47
2019-05-20T11:22:14.644Z,18.03
2019-05-20T11:24:53.224Z,18.17
2019-05-20T11:27:31.807Z,19.77
2019-05-20T11:30:02.963Z,19.00
2019-05-20T11:32:36.959Z,18.40
2019-05-20T11:35:11.468Z,18.53
2019-05-20T11:37:50.239Z,19.27
2019-05-20T11:40:23.391Z,19.47
2019-05-20T11:43:00.609Z,19.03
2019-05-20T11:45:36.364Z,18.73
2019-05-20T11:48:06.947Z,19.10
2019-05-20T11:50:37.331Z,18.83
2019-05-20T11:53:07.856Z,19.10
2019-05-20T11:55:40.195Z,18.47
2019-05-20T11:58:15.989Z,18.63
2019-05-20T12:00:42.830Z,18.80
2019-05-20T12:03:16.937Z,17.77
2019-05-20T12:05:47.447Z,19.83
2019-05-20T12:08:40.924Z,19.63
2019-05-20T12:11:12.280Z,18.97
2019-05-20T12:13:47.472Z,19.40
2019-05-20T12:16:20.895Z,19.73
2019-05-20T12:18:52.240Z,19.70
2019-05-20T12:21:22.973Z,19.20
2019-05-20T12:23:55.394Z,19.87
2019-05-20T12:26:26.048Z,19.57
2019-05-20T12:28:56.551Z,18.47
2019-05-20T12:31:32.375Z,19.63
2019-05-20T12:34:08.752Z,19.60
2019-05-20T12:36:41.908Z,19.03
2019-05-20T12:39:21.577Z,19.60
2019-05-20T12:41:54.360Z,19.00
2019-05-20T12:44:31.983Z,20.40
2019-05-20T12:47:02.868Z,20.47
2019-05-20T12:49:34.495Z,20.33
2019-05-20T12:52:05.608Z,20.97
2019-05-20T12:54:39.968Z,20.20
2019-05-20T12:57:10.607Z,19.20
2019-05-20T12:59:44.375Z,21.63
2019-05-20T13:02:18.158Z,20.03
2019-05-20T13:04:51.372Z,19.70
2019-05-20T13:07:27.071Z,20.83
2019-05-20T13:10:03.674Z,20.70
2019-05-20T13:12:36.912Z,21.43
2019-05-20T13:15:08.232Z,21.33
2019-05-20T13:17:45.002Z,20.97
2019-05-20T13:20:20.319Z,20.77
2019-05-20T13:22:52.582Z,21.00
2019-05-20T13:25:28.338Z,21.10
2019-05-20T13:28:05.221Z,20.07
2019-05-20T13:30:38.569Z,17.97
2019-05-20T13:33:10.429Z,18.87
2019-05-20T13:35:46.649Z,19.50
2019-05-20T13:38:28.455Z,18.50
2019-05-20T13:41:13.315Z,18.50
2019-05-20T13:43:43.669Z,18.43
2019-05-20T13:46:26.172Z,19.90
2019-05-20T13:49:05.452Z,21.13
2019-05-20T13:51:38.499Z,20.67
2019-05-20T13:54:10.804Z,20.77
2019-05-20T13:56:42.328Z,21.90
2019-05-20T13:59:18.140Z,21.63
2019-05-20T14:01:51.095Z,22.60
2019-05-20T14:04:28.578Z,21.50
2019-05-20T14:07:00.991Z,21.77
2019-05-20T14:09:49.452Z,20.87
2019-05-20T14:12:24.045Z,21.33
2019-05-20T14:14:55.019Z,21.73
2019-05-20T14:17:26.397Z,20.80
2019-05-20T14:19:57.798Z,20.47
2019-05-20T14:22:30.972Z,21.67
2019-05-20T14:25:08.186Z,20.83
2019-05-20T14:27:44.965Z,21.17
2019-05-20T14:30:19.233Z,20.07
2019-05-20T14:32:50.481Z,19.40
2019-05-20T14:35:21.005Z,20.60
2019-05-20T14:38:01.208Z,20.00
2019-05-20T14:40:35.633Z,20.80
2019-05-20T14:43:19.369Z,19.03
2019-05-20T14:45:51.411Z,20.47
2019-05-20T14:48:23.800Z,19.47
2019-05-20T14:50:54.460Z,19.00
2019-05-20T14:53:25.237Z,18.97
2019-05-20T14:56:07.489Z,18.10
2019-05-20T14:58:55.179Z,19.67
2019-05-20T15:01:38.333Z,18.17
2019-05-20T15:04:14.939Z,19.00
2019-05-20T15:06:51.180Z,18.97
2019-05-20T15:09:38.051Z,19.80
2019-05-20T15:12:17.206Z,17.87
2019-05-20T15:14:48.344Z,18.57
2019-05-20T15:17:28.534Z,18.83
2019-05-20T15:20:04.990Z,19.40
2019-05-20T15:22:40.183Z,18.97
2019-05-20T15:25:24.948Z,18.50
2019-05-20T15:28:00.591Z,19.67
2019-05-20T15:30:33.280Z,19.07
2019-05-20T15:33:12.500Z,19.83
2019-05-20T15:35:47.602Z,19.20
2019-05-20T15:38:22.637Z,18.50
2019-05-20T15:40:53.687Z,20.53
2019-05-20T15:43:40.320Z,18.33
2019-05-20T15:46:11.378Z,20.37
2019-05-20T15:48:51.910Z,20.07
2019-05-20T15:51:25.293Z,20.43
2019-05-20T15:54:00.984Z,20.00
2019-05-20T15:56:50.812Z,19.83
2019-05-20T15:59:21.452Z,20.93
2019-05-20T16:01:58.613Z,20.53
2019-05-20T16:04:35.936Z,19.73
2019-05-20T16:07:23.871Z,21.00
2019-05-20T16:10:03.159Z,21.47
2019-05-20T16:12:44.263Z,22.77
2019-05-20T16:15:26.695Z,22.27
2019-05-20T16:18:09.451Z,20.33
2019-05-20T16:20:42.636Z,22.63
2019-05-20T16:23:23.129Z,21.90
2019-05-20T16:26:02.992Z,22.77
2019-05-20T16:28:42.734Z,22.13
2019-05-20T16:31:28.810Z,21.57
2019-05-20T16:34:08.571Z,22.50
2019-05-20T16:36:47.553Z,22.60
2019-05-20T16:39:21.485Z,23.17
2019-05-20T16:42:03.233Z,22.47
2019-05-20T16:44:39.762Z,21.17
2019-05-20T16:47:11.429Z,22.97
2019-05-20T16:49:48.470Z,22.67
2019-05-20T16:52:20.602Z,24.27
2019-05-20T16:55:00.238Z,22.63
2019-05-20T16:57:33.049Z,23.97
2019-05-20T17:00:07.434Z,23.67
2019-05-20T17:02:36.812Z,22.73
2019-05-20T17:05:08.994Z,22.00
2019-05-20T17:07:46.711Z,24.57
2019-05-20T17:10:17.685Z,23.30
2019-05-20T17:12:48.292Z,24.67
2019-05-20T17:15:22.679Z,24.47
2019-05-20T17:17:56.375Z,24.73
2019-05-20T17:20:29.220Z,26.47
2019-05-20T17:23:15.500Z,24.37
2019-05-20T17:25:50.997Z,25.27
2019-05-20T17:28:22.091Z,25.67
2019-05-20T17:30:54.492Z,26.03
2019-05-20T17:33:29.317Z,23.20
2019-05-20T17:36:12.052Z,23.67
2019-05-20T17:38:48.516Z,22.40
2019-05-20T17:41:30.082Z,21.23
2019-05-20T17:44:05.467Z,20.13
2019-05-20T17:46:37.746Z,22.73
2019-05-20T17:49:10.495Z,21.40
2019-05-20T17:51:50.079Z,22.00
2019-05-20T17:54:21.818Z,21.07
2019-05-20T17:56:56.554Z,22.37
2019-05-20T17:59:38.535Z,23.97
2019-05-20T18:02:17.707Z,22.23
2019-05-20T18:04:51.118Z,22.53
2019-05-20T18:07:32.104Z,23.90
2019-05-20T18:10:07.066Z,22.83
2019-05-20T18:12:45.595Z,24.23
2019-05-20T18:15:22.661Z,24.97
2019-05-20T18:17:55.686Z,24.70
2019-05-20T18:20:51.542Z,24.73
2019-05-20T18:23:28.684Z,24.33
2019-05-20T18:26:03.323Z,25.50
2019-05-20T18:28:45.503Z,25.27
2019-05-20T18:31:36.100Z,24.30
2019-05-20T18:34:14.272Z,25.47
2019-05-20T18:36:48.707Z,25.37
2019-05-20T18:39:20.587Z,26.63
2019-05-20T18:41:58.361Z,24.60
2019-05-20T18:44:35.377Z,26.07
2019-05-20T18:47:09.098Z,26.00
2019-05-20T18:49:41.267Z,26.20
2019-05-20T18:52:23.079Z,26.17
2019-05-20T18:54:54.236Z,27.47
2019-05-20T18:57:31.759Z,26.87
2019-05-20T19:00:08.313Z,27.70
2019-05-20T19:02:39.795Z,27.07
2019-05-20T19:05:17.350Z,27.03
2019-05-20T19:07:49.595Z,25.93
2019-05-20T19:10:22.457Z,30.10
2019-05-20T19:13:06.544Z,27.07
2019-05-20T19:15:38.452Z,24.93
2019-05-20T19:18:12.202Z,26.57
2019-05-20T19:20:50.111Z,24.57
2019-05-20T19:23:23.201Z,24.80
2019-05-20T19:25:54.594Z,26.40
2019-05-20T19:28:36.735Z,25.87
2019-05-20T19:31:14.126Z,23.97
2019-05-20T19:33:45.592Z,27.00
2019-05-20T19:36:22.620Z,24.60
2019-05-20T19:39:02.309Z,24.23
2019-05-20T19:41:45.404Z,25.10
2019-05-20T19:44:15.411Z,27.97
2019-05-20T19:46:46.540Z,25.70
2019-05-20T19:49:24.369Z,25.70
2019-05-20T19:51:57.298Z,26.17
2019-05-20T19:54:28.503Z,24.97
2019-05-20T19:57:02.919Z,25.30
2019-05-20T19:59:43.032Z,26.17
2019-05-20T20:02:17.520Z,27.03
2019-05-20T20:04:47.414Z,25.33
2019-05-20T20:07:21.345Z,25.37
2019-05-20T20:09:55.819Z,26.03
2019-05-20T20:12:39.057Z,25.57
2019-05-20T20:15:26.283Z,27.13
2019-05-20T20:17:57.281Z,24.70
2019-05-20T20:20:29.305Z,24.93
2019-05-20T20:23:04.845Z,24.27
2019-05-20T20:25:43.322Z,22.67
2019-05-20T20:28:14.651Z,22.30
2019-05-20T20:30:54.004Z,22.07
2019-05-20T20:33:27.463Z,21.10
2019-05-20T20:36:00.100Z,21.80
2019-05-20T20:38:36.427Z,22.83
2019-05-20T20:41:13.152Z,22.40
2019-05-20T20:44:25.003Z,21.57
2019-05-20T20:47:20.467Z,21.50
2019-05-20T20:50:15.252Z,21.83
2019-05-20T20:52:56.645Z,21.73
2019-05-20T20:55:38.531Z,22.33
2019-05-20T20:58:16.938Z,23.20
2019-05-20T21:00:48.571Z,21.97
2019-05-20T21:03:32.229Z,22.03
2019-05-20T21:06:11.334Z,23.70
2019-05-20T21:08:53.471Z,22.77
2019-05-20T21:11:27.689Z,22.80
2019-05-20T21:13:58.271Z,23.43
2019-05-20T21:16:29.255Z,23.70
2019-05-20T21:19:07.893Z,23.80
2019-05-20T21:21:39.627Z,26.40
2019-05-20T21:24:18.951Z,29.03
2019-05-20T21:26:51.696Z,27.23
2019-05-20T21:29:32.347Z,29.20
2019-05-20T21:32:07.461Z,27.17
2019-05-20T21:34:37.886Z,28.87
2019-05-20T21:37:08.758Z,29.67
2019-05-20T21:39:40.673Z,29.57
2019-05-20T21:42:10.998Z,28.07
2019-05-20T21:44:41.516Z,28.57
2019-05-20T21:47:15.417Z,27.87
2019-05-20T21:49:46.823Z,26.93
2019-05-20T21:52:20.543Z,26.73
2019-05-20T21:54:57.671Z,26.93
2019-05-20T21:57:30.650Z,27.50
2019-05-20T22:00:07.271Z,28.10
2019-05-20T22:02:37.485Z,30.30
2019-05-20T22:05:23.475Z,27.63
2019-05-20T22:07:54.247Z,27.03
2019-05-20T22:10:28.137Z,28.10
2019-05-20T22:12:58.591Z,26.83
2019-05-20T22:15:32.590Z,26.63
2019-05-20T22:18:03.392Z,26.30
2019-05-20T22:20:33.811Z,25.97
2019-05-20T22:23:41.076Z,26.33
2019-05-20T22:26:11.506Z,25.97
2019-05-20T22:28:43.249Z,26.97
2019-05-20T22:31:13.865Z,27.10
2019-05-20T22:33:48.386Z,27.63
2019-05-20T22:36:18.701Z,26.87
2019-05-20T22:38:48.820Z,27.00
2019-05-20T22:41:18.864Z,27.43
2019-05-20T22:43:49.492Z,25.07
2019-05-20T22:46:19.965Z,25.37
2019-05-20T22:48:50.482Z,26.50
2019-05-20T22:51:22.929Z,26.60
2019-05-20T22:53:56.016Z,27.03
2019-05-20T22:56:26.396Z,28.07
2019-05-20T22:58:56.940Z,26.73
2019-05-20T23:01:27.843Z,25.97
2019-05-20T23:03:58.447Z,26.40
2019-05-20T23:06:28.693Z,26.87
2019-05-20T23:08:59.272Z,28.23
2019-05-20T23:11:29.742Z,27.47
2019-05-20T23:14:00.057Z,26.23
2019-05-20T23:16:30.405Z,26.43
2019-05-20T23:19:01.704Z,27.50
2019-05-20T23:21:36.642Z,25.37
2019-05-20T23:24:07.277Z,25.37
2019-05-20T23:26:37.836Z,26.33
2019-05-20T23:29:08.060Z,27.80
2019-05-20T23:31:42.137Z,26.90
2019-05-20T23:34:13.380Z,27.47
2019-05-20T23:36:43.773Z,26.73
2019-05-20T23:39:14.466Z,26.70
2019-05-20T23:41:45.070Z,28.70
2019-05-20T23:44:18.076Z,26.17
2019-05-20T23:46:48.410Z,26.07
2019-05-20T23:49:19.273Z,24.87
2019-05-20T23:51:49.485Z,25.13
2019-05-20T23:54:19.667Z,23.90
2019-05-20T23:56:50.386Z,22.90
2019-05-20T23:59:22.680Z,23.23
